Terminal Aerodrome Forecast
Issued by NWS Twin Cities, MN

Home | Current Version | Previous Version | Graphics & Text | Print | Product List | Glossary On
Versions: 1 2 3 4 5 6 7 8 9 10 11 12 13 14 15 16 17 18 19
000
FTUS43 KMPX 040520
TAFEAU
TAF
KEAU 040520Z 0406/0506 13005KT P6SM OVC020
     FM040800 14007KT 3SM -SN OVC015
     FM041000 14008KT 1 1/2SM -SN BR OVC008
      TEMPO 0412/0416 3/4SM -SN BR OVC004
     FM042200 21007KT 4SM -SN OVC015
     FM050100 24006KT P6SM OVC007=

USA.gov is the U.S. government's official web portal to all federal, state and local government web resources and services.